Time;durP1;ratioP1;P1;durP2;ratioP2;P2;SDS_P1;SDS_P2;PMS_P1;PMS_P2;Temp;Humidity;BMP_temperature;BMP_pressure;BME280_temperature;BME280_humidity;BME280_pressure;Samples;Min_cycle;Max_cycle;Signal;HPM_P1;HPM_P2
2023/03/28 00:01:15;;;;;;;7.43;2.40;;;;;;;2.07;100.00;99864.75;4974663;28;20195;-79
2023/03/28 00:03:45;;;;;;;6.10;2.30;;;;;;;2.04;100.00;99862.19;4969935;28;20278;-79
2023/03/28 00:06:17;;;;;;;8.37;2.40;;;;;;;2.05;100.00;99863.06;4991584;28;20275;-79
2023/03/28 00:08:46;;;;;;;7.10;2.57;;;;;;;1.97;100.00;99858.81;5071651;28;20219;-79
2023/03/28 00:11:19;;;;;;;4.60;2.33;;;;;;;2.06;100.00;99862.16;5068944;28;20220;-79
2023/03/28 00:13:50;;;;;;;7.60;2.33;;;;;;;1.97;100.00;99858.81;5073398;28;20189;-79
2023/03/28 00:16:20;;;;;;;5.77;2.73;;;;;;;1.98;100.00;99860.53;5080944;28;20669;-79
2023/03/28 00:18:49;;;;;;;9.03;1.87;;;;;;;1.95;100.00;99860.59;5068086;28;20283;-79
2023/03/28 00:21:22;;;;;;;5.47;2.10;;;;;;;1.95;100.00;99863.22;5068752;28;20662;-79
2023/03/28 00:23:52;;;;;;;5.70;2.07;;;;;;;1.95;100.00;99859.75;5070354;28;20184;-79
2023/03/28 00:26:25;;;;;;;6.67;2.20;;;;;;;2.00;100.00;99869.22;5069972;28;20224;-79
2023/03/28 00:28:54;;;;;;;7.33;2.20;;;;;;;2.00;100.00;99870.97;5066191;28;20262;-79
2023/03/28 00:31:26;;;;;;;6.90;2.60;;;;;;;1.95;100.00;99878.03;5069176;28;20224;-79
2023/03/28 00:33:55;;;;;;;5.50;1.97;;;;;;;1.88;100.00;99884.25;5070777;28;20418;-79
2023/03/28 00:36:28;;;;;;;4.67;2.27;;;;;;;2.01;100.00;99885.75;5074227;28;20189;-79
2023/03/28 00:39:05;;;;;;;8.07;2.20;;;;;;;1.98;100.00;99886.66;5070844;28;20263;-79
2023/03/28 00:41:38;;;;;;;8.83;2.60;;;;;;;1.85;100.00;99897.38;5063783;28;20196;-79
2023/03/28 00:44:52;;;;;;;5.50;2.33;;;;;;;1.94;100.00;99882.41;5074408;28;20196;-79
2023/03/28 00:47:35;;;;;;;8.13;2.13;;;;;;;1.90;100.00;99895.53;4990378;28;20211;-79
2023/03/28 00:50:10;;;;;;;5.77;2.00;;;;;;;1.87;100.00;99893.84;5062752;28;20240;-79
2023/03/28 00:52:44;;;;;;;3.70;1.70;;;;;;;1.89;100.00;99883.34;5069021;28;20195;-79
2023/03/28 00:55:18;;;;;;;6.07;2.10;;;;;;;1.90;100.00;99895.53;5019816;28;20262;-79
2023/03/28 00:57:49;;;;;;;5.80;2.07;;;;;;;1.99;100.00;99896.22;5071668;28;20254;-78
2023/03/28 01:00:19;;;;;;;9.73;2.20;;;;;;;2.04;100.00;99893.56;5066011;28;20355;-79
2023/03/28 01:02:54;;;;;;;6.57;2.10;;;;;;;2.04;100.00;99893.56;5067390;28;20196;-77
2023/03/28 01:05:26;;;;;;;9.03;2.20;;;;;;;1.99;100.00;99890.13;5068721;28;20195;-77
2023/03/28 01:07:58;;;;;;;8.07;1.97;;;;;;;1.92;100.00;99888.50;4940582;28;20246;-80
2023/03/28 01:10:28;;;;;;;7.73;2.07;;;;;;;1.96;100.00;99896.28;4982255;28;20223;-78
2023/03/28 01:12:58;;;;;;;4.40;1.80;;;;;;;2.11;100.00;99902.97;4974044;28;20232;-77
2023/03/28 01:15:28;;;;;;;7.00;2.30;;;;;;;1.99;100.00;99891.00;4986850;28;20271;-77
2023/03/28 01:18:02;;;;;;;12.27;2.10;;;;;;;2.04;100.00;99900.53;4989839;28;20769;-78
2023/03/28 01:20:52;;;;;;;7.50;1.93;;;;;;;1.99;100.00;99896.22;4987729;28;20223;-78
2023/03/28 01:23:52;;;;;;;9.57;2.20;;;;;;;2.00;100.00;99903.16;4983302;28;20246;-78
2023/03/28 01:26:47;;;;;;;9.00;1.90;;;;;;;1.96;100.00;99903.25;5048878;28;20200;-78
2023/03/28 01:30:00;;;;;;;6.00;2.70;;;;;;;1.92;100.00;99906.78;5068624;28;20203;-78
2023/03/28 01:33:05;;;;;;;14.80;2.00;;;;;;;1.87;100.00;99914.72;5070158;28;20250;-78
2023/03/28 01:35:58;;;;;;;7.53;1.93;;;;;;;1.92;100.00;99918.09;5072375;28;20228;-78
2023/03/28 01:38:37;;;;;;;7.90;2.03;;;;;;;1.93;100.00;99908.53;5069830;28;20279;-78
2023/03/28 01:41:14;;;;;;;6.73;2.00;;;;;;;1.87;100.00;99914.72;5060361;28;20809;-78
2023/03/28 01:43:51;;;;;;;9.23;2.60;;;;;;;1.96;100.00;99914.56;5066801;28;20196;-78
2023/03/28 01:46:26;;;;;;;5.63;1.83;;;;;;;1.91;100.00;99905.06;5068516;28;20192;-78
2023/03/28 01:49:00;;;;;;;6.97;2.27;;;;;;;1.78;100.00;99909.66;5063272;28;20231;-79
2023/03/28 01:51:40;;;;;;;6.97;2.43;;;;;;;1.75;100.00;99920.16;5069909;28;20216;-78
2023/03/28 01:54:20;;;;;;;5.90;2.33;;;;;;;1.73;100.00;99914.94;5067506;28;20246;-78
2023/03/28 01:56:56;;;;;;;7.37;2.27;;;;;;;1.74;100.00;99913.22;5065030;28;20200;-78
2023/03/28 01:59:30;;;;;;;9.83;2.60;;;;;;;1.84;100.00;99913.94;5067834;28;20196;-78
2023/03/28 02:02:04;;;;;;;8.50;2.30;;;;;;;1.72;100.00;99912.34;5063434;28;20196;-78
2023/03/28 02:04:35;;;;;;;9.00;2.50;;;;;;;1.72;100.00;99913.22;5066814;28;20260;-78
2023/03/28 02:07:07;;;;;;;7.70;2.30;;;;;;;1.72;100.00;99914.97;5069093;28;20200;-78
2023/03/28 02:09:41;;;;;;;9.60;2.47;;;;;;;1.51;100.00;99910.94;5066219;28;20196;-78
2023/03/28 02:12:15;;;;;;;9.27;2.80;;;;;;;1.55;100.00;99912.63;5061208;28;20215;-78
2023/03/28 02:14:47;;;;;;;8.97;2.90;;;;;;;1.60;100.00;99918.63;5066494;28;20196;-78
2023/03/28 02:17:16;;;;;;;10.67;3.60;;;;;;;1.58;100.00;99928.25;5064974;28;20525;-78
2023/03/28 02:19:52;;;;;;;9.13;2.80;;;;;;;1.51;100.00;99920.53;5037771;28;20647;-78
2023/03/28 02:22:24;;;;;;;11.33;3.40;;;;;;;1.36;100.00;99917.28;5062727;28;20199;-78
2023/03/28 02:24:56;;;;;;;13.23;3.07;;;;;;;1.58;100.00;99920.41;5068630;28;20254;-78
2023/03/28 02:27:25;;;;;;;10.23;3.13;;;;;;;1.59;100.00;99931.72;5068570;28;20265;-78
2023/03/28 02:29:54;;;;;;;9.63;2.73;;;;;;;1.55;100.00;99936.13;5062316;28;20199;-79
2023/03/28 02:32:22;;;;;;;10.07;3.30;;;;;;;1.39;100.00;99937.22;5068272;28;20217;-78
2023/03/28 02:34:54;;;;;;;9.40;2.90;;;;;;;1.57;100.00;99933.50;5066479;28;20256;-78
2023/03/28 02:37:35;;;;;;;5.63;2.97;;;;;;;1.50;100.00;99931.84;5069298;28;20288;-77
2023/03/28 02:40:28;;;;;;;10.30;3.37;;;;;;;1.44;100.00;99933.66;5072075;28;20200;-78
2023/03/28 02:43:21;;;;;;;9.60;2.90;;;;;;;1.41;100.00;99935.47;5068332;28;20193;-78
2023/03/28 02:46:16;;;;;;;8.43;3.00;;;;;;;1.40;100.00;99937.19;4968808;28;20273;-78
2023/03/28 02:48:57;;;;;;;5.73;3.07;;;;;;;1.43;100.00;99938.91;4959623;28;20192;-77
2023/03/28 02:51:33;;;;;;;6.93;3.30;;;;;;;1.37;100.00;99933.78;4971654;28;20216;-77
2023/03/28 02:54:19;;;;;;;9.80;3.60;;;;;;;1.28;100.00;99936.53;4972331;28;20219;-77
2023/03/28 02:57:00;;;;;;;13.57;3.73;;;;;;;1.24;100.00;99930.47;4974531;28;20710;-77
2023/03/28 02:59:34;;;;;;;7.83;3.30;;;;;;;1.36;100.00;99930.31;4972464;28;20199;-77
2023/03/28 03:02:04;;;;;;;12.27;4.17;;;;;;;1.25;100.00;99932.19;4972400;28;20745;-78
2023/03/28 03:04:32;;;;;;;7.77;3.80;;;;;;;1.20;100.00;99934.00;5046687;28;20188;-78
2023/03/28 03:07:01;;;;;;;13.93;3.27;;;;;;;1.16;100.00;99927.13;5075633;28;20659;-77
2023/03/28 03:09:29;;;;;;;8.97;3.30;;;;;;;1.09;100.00;99942.00;5072909;28;20200;-77
2023/03/28 03:11:59;;;;;;;9.10;3.67;;;;;;;1.05;100.00;99929.00;5062167;28;20224;-78
2023/03/28 03:14:28;;;;;;;8.97;4.10;;;;;;;0.98;100.00;99929.97;5070128;28;20193;-77
2023/03/28 03:16:56;;;;;;;8.87;3.87;;;;;;;1.17;100.00;99935.81;5066510;28;20216;-77
2023/03/28 03:19:25;;;;;;;10.23;3.80;;;;;;;1.11;100.00;99927.16;5068510;28;20265;-78
2023/03/28 03:21:54;;;;;;;8.70;4.17;;;;;;;1.01;100.00;99932.53;5071230;28;20196;-77
2023/03/28 03:24:23;;;;;;;9.50;4.63;;;;;;;0.90;100.00;99923.97;5068515;28;20238;-78
2023/03/28 03:26:52;;;;;;;13.13;4.23;;;;;;;0.85;100.00;99926.63;5068981;28;20246;-77
2023/03/28 03:29:22;;;;;;;8.37;4.07;;;;;;;1.04;100.00;99930.72;5072502;28;20213;-77
2023/03/28 03:31:51;;;;;;;10.07;4.07;;;;;;;0.96;100.00;99923.88;5072052;28;20216;-77
2023/03/28 03:34:19;;;;;;;8.60;3.80;;;;;;;0.96;100.00;99923.88;5063264;28;20220;-77
2023/03/28 03:36:48;;;;;;;12.73;4.83;;;;;;;0.94;100.00;99923.91;5075179;28;20193;-77
2023/03/28 03:39:17;;;;;;;9.47;4.03;;;;;;;1.02;100.00;99927.28;5066272;28;20192;-77
2023/03/28 03:41:45;;;;;;;16.37;4.60;;;;;;;1.10;100.00;99935.03;5062771;28;20233;-77
2023/03/28 03:44:14;;;;;;;9.67;4.50;;;;;;;1.15;100.00;99925.38;5061424;28;20196;-77
2023/03/28 03:46:44;;;;;;;17.90;4.30;;;;;;;1.15;100.00;99925.38;5071976;28;20242;-78
2023/03/28 03:49:13;;;;;;;17.10;4.33;;;;;;;1.20;100.00;99920.97;5039876;28;20188;-78
2023/03/28 03:51:42;;;;;;;15.97;4.27;;;;;;;1.26;100.00;99927.88;5066874;28;20222;-78
2023/03/28 03:54:10;;;;;;;7.97;4.10;;;;;;;1.29;100.00;99933.03;5071881;28;20663;-78
2023/03/28 03:56:41;;;;;;;15.87;4.70;;;;;;;1.33;100.00;99934.69;5068455;28;20198;-78
2023/03/28 03:59:10;;;;;;;8.40;4.10;;;;;;;1.31;100.00;99941.69;5064383;28;20256;-78
2023/03/28 04:01:40;;;;;;;11.93;4.33;;;;;;;0.97;100.00;99944.75;5070409;28;20257;-78
2023/03/28 04:04:10;;;;;;;9.93;4.20;;;;;;;1.02;100.00;99942.06;5071773;28;20203;-78
2023/03/28 04:06:39;;;;;;;13.20;4.57;;;;;;;1.09;100.00;99939.38;5074552;28;20207;-78
2023/03/28 04:09:08;;;;;;;8.80;4.13;;;;;;;1.05;100.00;99949.84;5065234;28;20643;-78
2023/03/28 04:11:36;;;;;;;13.77;4.10;;;;;;;1.22;100.00;99945.28;5067870;28;20204;-78
2023/03/28 04:14:04;;;;;;;8.93;3.83;;;;;;;1.03;100.00;99947.28;5068251;28;20208;-78
2023/03/28 04:16:33;;;;;;;12.40;4.47;;;;;;;1.11;100.00;99955.88;5071500;28;20262;-78
2023/03/28 04:19:12;;;;;;;13.17;4.00;;;;;;;1.04;100.00;99946.38;5074513;28;20282;-78
2023/03/28 04:21:42;;;;;;;14.43;4.23;;;;;;;1.08;100.00;99948.09;5071465;28;20196;-78
2023/03/28 04:24:14;;;;;;;13.90;4.73;;;;;;;0.85;100.00;99956.19;5068798;28;20197;-78
2023/03/28 04:26:44;;;;;;;10.80;4.60;;;;;;;0.96;100.00;99956.03;5069999;28;20234;-78
2023/03/28 04:29:13;;;;;;;11.87;4.73;;;;;;;1.00;100.00;99968.19;5069894;28;20195;-78
2023/03/28 04:31:48;;;;;;;11.10;4.30;;;;;;;0.95;100.00;99969.09;5071137;28;20201;-78
2023/03/28 04:34:18;;;;;;;13.50;4.90;;;;;;;0.97;100.00;99969.97;5067949;28;20220;-78
2023/03/28 04:36:47;;;;;;;13.53;5.00;;;;;;;0.90;100.00;99974.41;5069675;28;20254;-78
2023/03/28 04:39:15;;;;;;;15.23;5.13;;;;;;;0.96;100.00;99976.91;5059770;28;20208;-78
2023/03/28 04:41:45;;;;;;;13.37;4.87;;;;;;;0.88;100.00;99976.16;5067273;28;20189;-79
2023/03/28 04:44:13;;;;;;;9.80;4.67;;;;;;;0.95;100.00;99980.41;5074094;28;20200;-79
2023/03/28 04:46:41;;;;;;;13.47;5.40;;;;;;;0.79;100.00;99986.69;5067387;28;20204;-78
2023/03/28 04:49:11;;;;;;;9.50;4.53;;;;;;;0.88;100.00;99983.13;5069983;28;20219;-79
2023/03/28 04:51:41;;;;;;;11.03;4.67;;;;;;;0.81;100.00;99982.31;5064147;28;20208;-79
2023/03/28 04:54:09;;;;;;;17.13;5.47;;;;;;;0.90;100.00;99987.44;5063941;28;20224;-78
2023/03/28 04:56:38;;;;;;;11.17;5.53;;;;;;;0.96;100.00;99981.25;5069361;28;20203;-78
2023/03/28 04:59:06;;;;;;;10.57;5.67;;;;;;;0.88;100.00;99990.94;5038999;28;20208;-78
2023/03/28 05:01:35;;;;;;;11.40;5.53;;;;;;;0.92;100.00;100003.91;5068481;28;20200;-78
2023/03/28 05:04:04;;;;;;;13.30;5.83;;;;;;;0.80;100.00;100009.28;5066259;28;20193;-79
2023/03/28 05:06:32;;;;;;;14.03;6.43;;;;;;;0.88;100.00;100002.25;5067687;28;20196;-79
2023/03/28 05:09:03;;;;;;;12.33;5.93;;;;;;;0.69;100.00;100016.34;5068099;28;20230;-78
2023/03/28 05:11:32;;;;;;;12.83;7.03;;;;;;;0.67;100.00;100020.69;5068196;28;20204;-78
2023/03/28 05:14:00;;;;;;;16.37;6.17;;;;;;;0.73;100.00;100016.28;5063868;28;20216;-78
2023/03/28 05:16:29;;;;;;;18.27;6.80;;;;;;;0.70;100.00;100024.16;5070151;28;20309;-78
2023/03/28 05:18:57;;;;;;;17.90;7.03;;;;;;;0.56;100.00;100021.66;5070288;28;20394;-78
2023/03/28 05:21:26;;;;;;;21.27;7.93;;;;;;;0.55;100.00;100027.75;5066476;28;20655;-78
2023/03/28 05:23:54;;;;;;;17.20;6.57;;;;;;;0.68;100.00;100025.06;5066608;28;20196;-78
2023/03/28 05:26:24;;;;;;;15.97;6.90;;;;;;;0.89;100.00;100030.03;5066003;28;20196;-78
2023/03/28 05:28:53;;;;;;;14.87;6.90;;;;;;;0.85;100.00;100028.31;5067532;28;20249;-78
2023/03/28 05:31:24;;;;;;;14.93;7.33;;;;;;;0.93;100.00;100034.31;5070058;28;20204;-78
2023/03/28 05:33:53;;;;;;;15.37;6.60;;;;;;;0.74;100.00;100041.47;5064871;28;20235;-78
2023/03/28 05:36:21;;;;;;;20.77;8.33;;;;;;;0.84;100.00;100037.91;5065787;28;20224;-78
2023/03/28 05:38:51;;;;;;;17.97;7.80;;;;;;;0.85;100.00;100047.44;5063911;28;20200;-79
2023/03/28 05:41:19;;;;;;;17.03;7.83;;;;;;;0.92;100.00;100047.38;5018248;28;20238;-79
2023/03/28 05:43:49;;;;;;;13.60;7.90;;;;;;;1.05;100.00;100054.19;5063361;28;20204;-79
2023/03/28 05:46:18;;;;;;;17.70;8.30;;;;;;;0.82;100.00;100054.44;5069918;28;20250;-79
2023/03/28 05:48:46;;;;;;;16.80;8.13;;;;;;;0.97;100.00;100049.09;5062416;28;20257;-79
2023/03/28 05:51:16;;;;;;;16.20;8.13;;;;;;;1.01;100.00;100055.97;5063581;28;20646;-78
2023/03/28 05:53:47;;;;;;;16.73;8.43;;;;;;;1.05;100.00;100062.88;5072728;28;20273;-78
2023/03/28 05:56:15;;;;;;;14.03;7.97;;;;;;;1.03;100.00;100061.19;5071364;28;20200;-79
2023/03/28 05:58:44;;;;;;;15.43;8.13;;;;;;;0.97;100.00;100059.53;5064370;28;20204;-79
2023/03/28 06:01:17;;;;;;;19.40;7.90;;;;;;;1.03;100.00;100066.38;5063086;28;20196;-79
2023/03/28 06:03:46;;;;;;;17.50;8.60;;;;;;;1.14;100.00;100067.13;4985912;28;20256;-79
2023/03/28 06:06:16;;;;;;;16.07;8.20;;;;;;;0.95;100.00;100071.69;4988821;28;20214;-78
2023/03/28 06:08:45;;;;;;;15.30;8.33;;;;;;;1.16;100.00;100070.63;4987092;28;20254;-79
2023/03/28 06:11:13;;;;;;;21.60;8.63;;;;;;;1.38;100.00;100073.84;4988515;28;20253;-79
2023/03/28 06:13:41;;;;;;;18.23;9.03;;;;;;;1.39;100.00;100068.59;4986855;28;20214;-78
2023/03/28 06:16:10;;;;;;;15.93;8.87;;;;;;;1.42;100.00;100073.75;4990894;28;20195;-79
2023/03/28 06:18:40;;;;;;;21.30;9.30;;;;;;;1.42;100.00;100076.38;4988562;28;20249;-78
2023/03/28 06:21:08;;;;;;;17.30;9.10;;;;;;;1.35;100.00;100079.97;5005944;28;20192;-79
2023/03/28 06:23:36;;;;;;;19.83;9.33;;;;;;;1.29;100.00;100084.38;5072830;28;20192;-78
2023/03/28 06:26:06;;;;;;;20.60;9.17;;;;;;;1.31;100.00;100088.69;5068540;28;20204;-78
2023/03/28 06:28:34;;;;;;;18.93;9.60;;;;;;;1.21;100.00;100088.81;5010071;28;20198;-78
2023/03/28 06:31:02;;;;;;;19.80;9.60;;;;;;;1.29;100.00;100087.84;5010662;28;20201;-78
2023/03/28 06:33:31;;;;;;;21.00;9.90;;;;;;;1.34;100.00;100088.63;5008032;28;20226;-79
2023/03/28 06:36:01;;;;;;;23.67;9.87;;;;;;;1.46;100.00;100086.78;5011692;28;20237;-78
2023/03/28 06:38:29;;;;;;;19.10;8.77;;;;;;;1.52;100.00;100095.41;5009214;28;20210;-79
2023/03/28 06:40:58;;;;;;;21.17;9.43;;;;;;;1.36;100.00;100094.75;5006425;28;20202;-78
2023/03/28 06:43:29;;;;;;;25.57;9.60;;;;;;;1.51;100.00;100092.81;5005688;28;20253;-78
2023/03/28 06:45:58;;;;;;;18.57;9.07;;;;;;;1.57;100.00;100092.75;5010432;28;20201;-78
2023/03/28 06:48:30;;;;;;;18.27;10.20;;;;;;;1.32;100.00;100100.84;5010466;28;20589;-77
2023/03/28 06:51:03;;;;;;;17.03;9.43;;;;;;;1.40;100.00;100101.63;5012846;28;20217;-78
2023/03/28 06:53:34;;;;;;;18.37;9.03;;;;;;;1.53;100.00;100104.94;5002552;28;20297;-78
2023/03/28 06:56:03;;;;;;;14.57;8.93;;;;;;;1.70;100.00;100091.69;5069264;28;20253;-78
2023/03/28 06:58:31;;;;;;;17.23;9.00;;;;;;;1.69;100.00;100092.56;5013682;28;20206;-78
2023/03/28 07:01:00;;;;;;;20.43;8.30;;;;;;;1.72;100.00;100101.22;4981378;28;20261;-77
2023/03/28 07:03:30;;;;;;;17.20;9.03;;;;;;;1.85;100.00;100094.13;5006653;28;20285;-78
2023/03/28 07:05:59;;;;;;;18.30;9.47;;;;;;;1.79;100.00;100096.78;5003113;28;20194;-78
2023/03/28 07:08:29;;;;;;;16.80;9.20;;;;;;;2.03;100.00;100100.84;5008318;28;20271;-78
2023/03/28 07:10:58;;;;;;;19.07;9.00;;;;;;;2.00;100.00;100099.09;5012394;28;20316;-78
2023/03/28 07:13:26;;;;;;;19.50;8.90;;;;;;;1.86;100.00;100111.50;5008051;28;20238;-78
2023/03/28 07:16:03;;;;;;;17.50;8.23;;;;;;;1.93;100.00;100113.16;5023858;28;20196;-78
2023/03/28 07:18:31;;;;;;;19.63;8.47;;;;;;;2.01;100.00;100106.06;5067688;28;20231;-78
2023/03/28 07:20:59;;;;;;;17.07;8.70;;;;;;;2.17;100.00;100108.47;5065176;28;20204;-78
2023/03/28 07:23:33;;;;;;;16.60;8.00;;;;;;;2.28;100.00;100112.63;5071089;28;20287;-78
2023/03/28 07:26:02;;;;;;;19.87;8.50;;;;;;;2.18;100.00;100118.03;5068060;28;20651;-78
2023/03/28 07:28:31;;;;;;;15.97;8.50;;;;;;;2.29;100.00;100124.81;5073477;28;20258;-79
2023/03/28 07:31:00;;;;;;;15.80;7.90;;;;;;;2.41;100.00;100115.06;5072110;28;20233;-78
2023/03/28 07:33:29;;;;;;;17.40;8.33;;;;;;;2.38;100.00;100121.22;5065223;28;20271;-78
2023/03/28 07:36:09;;;;;;;19.03;7.93;;;;;;;2.65;100.00;100126.91;5068896;28;20236;-78
2023/03/28 07:38:38;;;;;;;14.33;6.77;;;;;;;2.66;100.00;100134.72;5071856;28;20192;-78
2023/03/28 07:41:07;;;;;;;14.03;8.03;;;;;;;2.52;100.00;100131.47;5068134;28;20246;-78
2023/03/28 07:43:37;;;;;;;17.53;6.13;;;;;;;2.73;100.00;100128.50;5069795;28;20242;-78
2023/03/28 07:46:08;;;;;;;16.87;6.70;;;;;;;2.63;100.00;100126.94;5067255;28;20204;-78
2023/03/28 07:48:39;;;;;;;11.77;5.97;;;;;;;2.55;100.00;100136.66;5066621;28;20196;-79
2023/03/28 07:51:09;;;;;;;14.20;5.80;;;;;;;2.47;100.00;100135.91;5074838;28;20220;-78
2023/03/28 07:53:39;;;;;;;13.53;6.87;;;;;;;2.49;100.00;100134.97;5071549;28;20199;-78
2023/03/28 07:56:10;;;;;;;13.97;6.43;;;;;;;2.91;100.00;100129.94;5067947;28;20200;-78
2023/03/28 07:58:39;;;;;;;13.43;6.23;;;;;;;3.17;100.00;100135.56;5070505;28;20655;-78
2023/03/28 08:01:10;;;;;;;16.63;6.47;;;;;;;3.47;100.00;100132.41;5074669;28;20201;-79
2023/03/28 08:03:41;;;;;;;14.43;5.63;;;;;;;3.29;100.00;100131.88;5069595;28;20189;-78
2023/03/28 08:06:12;;;;;;;11.90;5.97;;;;;;;3.59;100.00;100142.66;5030990;28;20197;-78
2023/03/28 08:09:00;;;;;;;17.00;6.00;;;;;;;3.64;100.00;100133.78;5032370;28;20675;-78
2023/03/28 08:11:31;;;;;;;16.53;6.33;;;;;;;3.96;100.00;100141.00;5024476;28;20248;-78
2023/03/28 08:13:59;;;;;;;15.37;6.83;;;;;;;4.23;100.00;100142.16;5025036;28;20363;-79
2023/03/28 08:16:30;;;;;;;18.10;5.83;;;;;;;4.26;100.00;100138.63;5029865;28;20205;-78
2023/03/28 08:18:59;;;;;;;9.47;5.03;;;;;;;4.08;100.00;100145.13;5029489;28;20212;-78
2023/03/28 08:21:38;;;;;;;16.60;5.07;;;;;;;4.02;100.00;100143.47;5027883;28;20197;-79
2023/03/28 08:24:10;;;;;;;12.17;4.60;;;;;;;4.18;100.00;100154.50;5040070;28;20203;-79
2023/03/28 08:26:45;;;;;;;12.33;4.73;;;;;;;4.32;100.00;100154.19;5069780;28;20200;-79
2023/03/28 08:29:15;;;;;;;11.43;4.33;;;;;;;4.31;100.00;100153.31;5074179;28;20242;-78
2023/03/28 08:31:44;;;;;;;11.90;4.70;;;;;;;4.66;100.00;100161.31;5066850;28;20195;-78
2023/03/28 08:34:12;;;;;;;14.63;5.00;;;;;;;4.46;100.00;100162.63;5061477;28;20228;-79
2023/03/28 08:36:40;;;;;;;11.10;4.43;;;;;;;4.54;100.00;100163.31;5073984;28;20246;-79
2023/03/28 08:39:10;;;;;;;12.60;5.03;;;;;;;4.18;100.00;100161.53;5064470;28;20185;-78
2023/03/28 08:42:04;;;;;;;11.93;4.70;;;;;;;3.92;100.00;100162.91;5067569;28;20663;-78
2023/03/28 08:44:51;;;;;;;14.13;5.00;;;;;;;3.81;100.00;100159.66;5070283;28;20197;-78
2023/03/28 08:47:25;;;;;;;10.90;4.10;;;;;;;3.77;100.00;100160.63;5069172;28;20188;-78
2023/03/28 08:49:57;;;;;;;11.00;3.87;;;;;;;4.35;100.00;100159.38;5073773;28;20250;-79
2023/03/28 08:52:26;;;;;;;11.10;4.10;;;;;;;4.85;100.00;100157.34;5070799;28;20188;-79
2023/03/28 08:55:00;;;;;;;13.37;4.07;;;;;;;4.90;100.00;100155.44;5068221;28;20216;-78
2023/03/28 08:57:32;;;;;;;13.40;4.20;;;;;;;4.24;100.00;100162.22;5064903;28;20408;-79
2023/03/28 09:00:11;;;;;;;14.50;4.50;;;;;;;4.74;100.00;100159.34;5068878;28;20196;-78
2023/03/28 09:02:41;;;;;;;9.83;4.40;;;;;;;4.63;100.00;100167.47;5070593;28;20266;-78
2023/03/28 09:05:17;;;;;;;10.23;3.60;;;;;;;5.25;100.00;100162.44;5068074;28;20694;-78
2023/03/28 09:08:00;;;;;;;7.90;3.00;;;;;;;5.20;100.00;100163.44;5072111;28;20196;-78
2023/03/28 09:10:39;;;;;;;6.83;3.17;;;;;;;5.18;100.00;100168.72;5066441;28;20203;-78
2023/03/28 09:13:19;;;;;;;10.67;3.67;;;;;;;5.06;100.00;100161.19;5017779;28;20192;-78
2023/03/28 09:16:05;;;;;;;8.47;3.77;;;;;;;5.21;100.00;100157.28;5009591;28;20744;-78
2023/03/28 09:19:02;;;;;;;6.50;3.47;;;;;;;5.14;100.00;100160.09;5011102;28;20198;-78
2023/03/28 09:21:39;;;;;;;8.70;3.30;;;;;;;4.88;100.00;100157.25;5006811;28;20230;-78
2023/03/28 09:24:24;;;;;;;6.30;3.03;;;;;;;4.72;100.00;100155.88;5008920;28;20268;-78
2023/03/28 09:27:02;;;;;;;9.43;3.00;;;;;;;4.64;100.00;100156.09;5006588;28;20217;-78
2023/03/28 09:29:35;;;;;;;6.67;3.13;;;;;;;4.86;100.00;100154.66;5006727;28;20201;-78
2023/03/28 09:32:05;;;;;;;6.83;2.87;;;;;;;5.26;100.00;100158.03;5005942;28;20452;-78
2023/03/28 09:34:38;;;;;;;10.80;2.90;;;;;;;5.28;100.00;100154.47;5002864;28;20225;-78
2023/03/28 09:37:28;;;;;;;11.20;3.40;;;;;;;4.96;100.00;100150.03;5008690;28;20202;-78
2023/03/28 09:40:06;;;;;;;7.30;2.73;;;;;;;5.62;100.00;100150.94;5024586;28;20205;-78
2023/03/28 09:42:46;;;;;;;15.63;3.30;;;;;;;5.78;100.00;100149.56;5069461;28;20199;-78
2023/03/28 09:45:29;;;;;;;9.83;3.30;;;;;;;5.69;100.00;100137.59;5022628;28;20635;-79
2023/03/28 09:47:58;;;;;;;8.17;2.80;;;;;;;6.01;100.00;100141.94;5067826;28;20199;-79
2023/03/28 09:50:26;;;;;;;8.60;2.83;;;;;;;4.91;100.00;100140.56;5066903;28;20211;-78
2023/03/28 09:52:57;;;;;;;5.90;2.83;;;;;;;5.46;100.00;100140.84;5067086;28;20199;-79
2023/03/28 09:55:28;;;;;;;5.60;2.40;;;;;;;5.82;100.00;100135.47;5065544;28;20212;-78
2023/03/28 09:58:07;;;;;;;6.17;1.93;;;;;;;5.89;97.67;100139.66;5067648;28;20200;-78
2023/03/28 10:00:37;;;;;;;8.03;2.50;;;;;;;5.97;96.52;100139.44;5072493;28;20222;-78
2023/03/28 10:03:07;;;;;;;11.50;2.63;;;;;;;6.03;97.07;100134.00;5067756;28;20195;-78
2023/03/28 10:05:39;;;;;;;5.87;2.40;;;;;;;6.16;97.61;100134.47;5068256;28;20238;-78
2023/03/28 10:08:22;;;;;;;6.43;2.60;;;;;;;6.23;97.28;100130.75;5069726;28;20628;-78
2023/03/28 10:11:00;;;;;;;6.80;2.43;;;;;;;6.16;96.87;100124.81;5070969;28;20196;-79
2023/03/28 10:13:37;;;;;;;5.23;2.00;;;;;;;6.13;95.63;100127.56;5069412;28;20219;-79
2023/03/28 10:16:06;;;;;;;5.67;2.23;;;;;;;6.10;93.57;100129.41;5048608;28;20270;-78
2023/03/28 10:18:35;;;;;;;7.20;2.40;;;;;;;5.83;94.77;100112.66;5069440;28;20192;-78
2023/03/28 10:21:13;;;;;;;6.30;2.00;;;;;;;6.38;87.49;100118.91;5060764;28;20197;-78
2023/03/28 10:23:49;;;;;;;4.00;1.87;;;;;;;6.62;83.04;100119.91;5067199;28;20204;-80
2023/03/28 10:26:23;;;;;;;6.23;2.20;;;;;;;6.81;79.22;100121.00;5068648;28;20207;-79
2023/03/28 10:28:56;;;;;;;4.57;2.10;;;;;;;7.13;77.71;100119.91;5069726;28;20283;-78
2023/03/28 10:31:29;;;;;;;3.60;2.10;;;;;;;6.70;79.33;100117.88;5065769;28;20204;-79
2023/03/28 10:33:59;;;;;;;7.47;2.33;;;;;;;6.95;71.91;100110.00;5070509;28;20193;-79
2023/03/28 10:36:31;;;;;;;5.63;1.60;;;;;;;7.08;70.06;100111.31;5067931;28;20321;-78
2023/03/28 10:39:18;;;;;;;3.50;1.60;;;;;;;6.83;64.05;100114.78;5071917;28;20200;-78
2023/03/28 10:41:52;;;;;;;5.70;2.10;;;;;;;6.94;64.82;100118.81;5067946;28;20233;-79
2023/03/28 10:44:34;;;;;;;4.93;1.70;;;;;;;6.26;67.16;100109.63;5072794;28;20200;-78
2023/03/28 10:47:05;;;;;;;5.13;1.67;;;;;;;7.05;69.29;100122.84;5069191;28;20197;-78
2023/03/28 10:49:43;;;;;;;4.17;1.80;;;;;;;6.81;71.55;100115.75;5047066;28;20213;-79
2023/03/28 10:52:21;;;;;;;5.40;1.87;;;;;;;6.93;71.42;100117.09;5042724;28;20200;-78
2023/03/28 10:55:00;;;;;;;3.40;1.70;;;;;;;7.89;68.92;100103.13;5043074;28;20201;-79
2023/03/28 10:57:36;;;;;;;4.53;2.10;;;;;;;7.70;66.58;100109.06;5042850;28;20676;-78
2023/03/28 11:00:13;;;;;;;7.10;1.90;;;;;;;8.84;66.36;100105.50;5046025;28;20188;-79
2023/03/28 11:03:10;;;;;;;3.03;1.93;;;;;;;8.94;64.38;100109.50;5000966;28;20199;-79
2023/03/28 11:05:47;;;;;;;7.07;2.77;;;;;;;8.55;67.31;100106.72;5043142;28;20229;-78
2023/03/28 11:08:43;;;;;;;6.03;2.10;;;;;;;8.38;70.39;100102.09;5064774;28;20208;-84
2023/03/28 11:11:47;;;;;;;6.17;2.20;;;;;;;7.96;70.75;100100.19;5066202;28;20204;-85
2023/03/28 11:14:25;;;;;;;3.17;1.90;;;;;;;8.01;68.34;100089.47;5071909;28;20387;-83
2023/03/28 11:17:02;;;;;;;19.50;11.10;;;;;;;7.55;71.40;100092.97;5069837;28;20250;-84
2023/03/28 11:20:00;;;;;;;5.87;2.17;;;;;;;8.41;68.51;100099.34;5070321;28;20200;-83
2023/03/28 11:22:40;;;;;;;10.97;6.23;;;;;;;8.86;67.63;100093.09;5069918;28;20212;-84
2023/03/28 11:25:35;;;;;;;5.33;2.20;;;;;;;8.96;64.04;100081.22;5069178;28;20231;-84
2023/03/28 11:28:28;;;;;;;7.23;2.50;;;;;;;8.64;61.15;100079.06;4990074;28;20203;-84
2023/03/28 11:31:20;;;;;;;3.47;1.70;;;;;;;9.25;61.94;100072.03;4896483;29;20203;-85
2023/03/28 11:34:12;;;;;;;5.33;1.97;;;;;;;8.72;61.24;100075.19;4868358;29;20199;-84
2023/03/28 11:36:56;;;;;;;4.77;1.87;;;;;;;9.75;59.18;100059.19;4895692;29;20343;-85
2023/03/28 11:39:47;;;;;;;4.37;1.47;;;;;;;9.75;55.74;100053.91;4895709;29;20206;-85
2023/03/28 11:42:30;;;;;;;18.87;15.47;;;;;;;9.46;56.25;100046.44;4883081;29;20269;-85
2023/03/28 11:45:06;;;;;;;7.17;1.90;;;;;;;9.74;59.04;100041.56;4859291;29;20203;-85
2023/03/28 11:47:41;;;;;;;5.57;2.07;;;;;;;9.74;58.46;100048.66;4858045;29;20232;-85
2023/03/28 11:53:08;;;;;;;9.70;5.17;;;;;;;7.93;61.58;100042.28;4857236;29;20299;-84
2023/03/28 11:55:49;;;;;;;2.43;1.20;;;;;;;8.75;60.65;100034.56;4886380;29;20206;-84
2023/03/28 11:58:28;;;;;;;5.27;1.57;;;;;;;8.93;62.66;100032.94;4863502;29;20684;-84
2023/03/28 12:01:10;;;;;;;4.47;1.70;;;;;;;9.18;59.21;100025.66;4843273;29;20204;-84